sensor_id;sensor_type;location;lat;lon;timestamp;P1;durP1;ratioP1;P2;durP2;ratioP2
77968;SDS011;67161;0.000;0.000;2023-04-03T00:01:02;973.08;;;313.95;;
77968;SDS011;67161;0.000;0.000;2023-04-03T00:03:28;976.85;;;313.55;;
77968;SDS011;67161;0.000;0.000;2023-04-03T00:05:54;966.55;;;311.60;;
77968;SDS011;67161;0.000;0.000;2023-04-03T00:08:20;970.05;;;311.58;;
77968;SDS011;67161;0.000;0.000;2023-04-03T00:10:46;965.03;;;310.88;;
77968;SDS011;67161;0.000;0.000;2023-04-03T00:13:12;961.95;;;309.60;;
77968;SDS011;67161;0.000;0.000;2023-04-03T00:15:38;953.97;;;308.38;;
77968;SDS011;67161;0.000;0.000;2023-04-03T00:18:04;960.13;;;310.17;;
77968;SDS011;67161;0.000;0.000;2023-04-03T00:20:30;967.97;;;312.98;;
77968;SDS011;67161;0.000;0.000;2023-04-03T00:22:56;971.35;;;313.45;;
77968;SDS011;67161;0.000;0.000;2023-04-03T00:25:22;969.22;;;310.65;;
77968;SDS011;67161;0.000;0.000;2023-04-03T00:27:47;972.17;;;311.88;;
77968;SDS011;67161;0.000;0.000;2023-04-03T00:30:14;967.50;;;312.20;;
77968;SDS011;67161;0.000;0.000;2023-04-03T00:32:41;973.83;;;312.10;;
77968;SDS011;67161;0.000;0.000;2023-04-03T00:35:07;969.13;;;310.83;;
77968;SDS011;67161;0.000;0.000;2023-04-03T00:37:33;982.15;;;316.40;;
77968;SDS011;67161;0.000;0.000;2023-04-03T00:39:59;1035.65;;;331.73;;
77968;SDS011;67161;0.000;0.000;2023-04-03T00:42:25;1012.03;;;326.52;;
77968;SDS011;67161;0.000;0.000;2023-04-03T00:47:23;971.13;;;313.38;;
77968;SDS011;67161;0.000;0.000;2023-04-03T00:49:50;997.67;;;320.77;;
77968;SDS011;67161;0.000;0.000;2023-04-03T00:52:17;991.78;;;320.17;;
77968;SDS011;67161;0.000;0.000;2023-04-03T00:54:46;1011.50;;;324.90;;
77968;SDS011;67161;0.000;0.000;2023-04-03T00:57:13;979.65;;;315.80;;
77968;SDS011;67161;0.000;0.000;2023-04-03T00:59:44;983.17;;;318.95;;
77968;SDS011;67161;0.000;0.000;2023-04-03T01:02:15;981.58;;;317.52;;
77968;SDS011;67161;0.000;0.000;2023-04-03T01:04:41;985.50;;;318.65;;
77968;SDS011;67161;0.000;0.000;2023-04-03T01:07:27;993.45;;;321.63;;
77968;SDS011;67161;0.000;0.000;2023-04-03T01:09:59;1008.85;;;325.08;;
77968;SDS011;67161;0.000;0.000;2023-04-03T01:12:28;996.75;;;321.20;;
77968;SDS011;67161;0.000;0.000;2023-04-03T01:14:56;983.20;;;317.33;;
77968;SDS011;67161;0.000;0.000;2023-04-03T01:17:32;973.17;;;315.52;;
77968;SDS011;67161;0.000;0.000;2023-04-03T01:25:27;983.75;;;318.75;;
77968;SDS011;67161;0.000;0.000;2023-04-03T01:27:53;988.20;;;320.83;;
77968;SDS011;67161;0.000;0.000;2023-04-03T01:30:21;986.45;;;319.90;;
77968;SDS011;67161;0.000;0.000;2023-04-03T01:32:52;983.80;;;317.35;;
77968;SDS011;67161;0.000;0.000;2023-04-03T01:35:18;963.95;;;313.17;;
77968;SDS011;67161;0.000;0.000;2023-04-03T01:37:43;977.75;;;317.30;;
77968;SDS011;67161;0.000;0.000;2023-04-03T01:40:09;984.47;;;317.52;;
77968;SDS011;67161;0.000;0.000;2023-04-03T01:42:35;964.15;;;311.63;;
77968;SDS011;67161;0.000;0.000;2023-04-03T01:45:01;953.95;;;308.90;;
77968;SDS011;67161;0.000;0.000;2023-04-03T01:47:26;965.10;;;312.48;;
77968;SDS011;67161;0.000;0.000;2023-04-03T01:49:52;952.53;;;310.23;;
77968;SDS011;67161;0.000;0.000;2023-04-03T01:52:18;965.75;;;312.05;;
77968;SDS011;67161;0.000;0.000;2023-04-03T01:54:43;966.90;;;313.08;;
77968;SDS011;67161;0.000;0.000;2023-04-03T01:57:09;958.47;;;312.63;;
77968;SDS011;67161;0.000;0.000;2023-04-03T01:59:35;954.28;;;311.05;;
77968;SDS011;67161;0.000;0.000;2023-04-03T02:02:00;958.15;;;310.80;;
77968;SDS011;67161;0.000;0.000;2023-04-03T02:04:26;962.15;;;312.55;;
77968;SDS011;67161;0.000;0.000;2023-04-03T02:06:51;954.92;;;312.15;;
77968;SDS011;67161;0.000;0.000;2023-04-03T02:09:17;961.55;;;311.85;;
77968;SDS011;67161;0.000;0.000;2023-04-03T02:11:43;952.58;;;308.58;;
77968;SDS011;67161;0.000;0.000;2023-04-03T02:14:08;947.80;;;306.90;;
77968;SDS011;67161;0.000;0.000;2023-04-03T02:16:34;949.72;;;308.38;;
77968;SDS011;67161;0.000;0.000;2023-04-03T02:19:00;932.25;;;303.67;;
77968;SDS011;67161;0.000;0.000;2023-04-03T02:21:25;913.92;;;297.70;;
77968;SDS011;67161;0.000;0.000;2023-04-03T02:23:51;887.63;;;291.40;;
77968;SDS011;67161;0.000;0.000;2023-04-03T02:26:17;903.00;;;296.63;;
77968;SDS011;67161;0.000;0.000;2023-04-03T02:28:42;919.72;;;300.70;;
77968;SDS011;67161;0.000;0.000;2023-04-03T02:31:09;943.70;;;307.65;;
77968;SDS011;67161;0.000;0.000;2023-04-03T02:33:35;938.17;;;307.55;;
77968;SDS011;67161;0.000;0.000;2023-04-03T02:36:02;990.35;;;323.00;;
77968;SDS011;67161;0.000;0.000;2023-04-03T02:38:29;947.13;;;308.70;;
77968;SDS011;67161;0.000;0.000;2023-04-03T02:41:08;943.13;;;308.67;;
77968;SDS011;67161;0.000;0.000;2023-04-03T02:43:35;952.15;;;310.77;;
77968;SDS011;67161;0.000;0.000;2023-04-03T02:46:01;956.10;;;311.58;;
77968;SDS011;67161;0.000;0.000;2023-04-03T02:48:27;949.50;;;311.30;;
77968;SDS011;67161;0.000;0.000;2023-04-03T02:50:52;941.97;;;308.98;;
77968;SDS011;67161;0.000;0.000;2023-04-03T02:53:18;942.85;;;308.92;;
77968;SDS011;67161;0.000;0.000;2023-04-03T02:55:44;959.65;;;312.83;;
77968;SDS011;67161;0.000;0.000;2023-04-03T02:58:10;949.17;;;311.52;;
77968;SDS011;67161;0.000;0.000;2023-04-03T03:00:36;959.25;;;313.30;;
77968;SDS011;67161;0.000;0.000;2023-04-03T03:03:01;947.50;;;309.58;;
77968;SDS011;67161;0.000;0.000;2023-04-03T03:05:27;944.45;;;310.17;;
77968;SDS011;67161;0.000;0.000;2023-04-03T03:07:53;952.35;;;310.92;;
77968;SDS011;67161;0.000;0.000;2023-04-03T03:10:19;946.67;;;310.48;;
77968;SDS011;67161;0.000;0.000;2023-04-03T03:12:45;924.97;;;304.33;;
77968;SDS011;67161;0.000;0.000;2023-04-03T03:15:11;930.58;;;304.83;;
77968;SDS011;67161;0.000;0.000;2023-04-03T03:17:37;935.30;;;305.60;;
77968;SDS011;67161;0.000;0.000;2023-04-03T03:20:03;936.50;;;306.02;;
77968;SDS011;67161;0.000;0.000;2023-04-03T03:22:29;929.28;;;303.52;;
77968;SDS011;67161;0.000;0.000;2023-04-03T03:24:55;919.50;;;302.23;;
77968;SDS011;67161;0.000;0.000;2023-04-03T03:27:21;913.10;;;298.45;;
77968;SDS011;67161;0.000;0.000;2023-04-03T03:29:47;910.92;;;297.38;;
77968;SDS011;67161;0.000;0.000;2023-04-03T03:32:12;913.40;;;299.63;;
77968;SDS011;67161;0.000;0.000;2023-04-03T03:34:38;904.35;;;295.25;;
77968;SDS011;67161;0.000;0.000;2023-04-03T03:37:04;899.72;;;293.60;;
77968;SDS011;67161;0.000;0.000;2023-04-03T03:39:29;905.17;;;294.85;;
77968;SDS011;67161;0.000;0.000;2023-04-03T03:41:55;909.25;;;298.92;;
77968;SDS011;67161;0.000;0.000;2023-04-03T03:44:21;933.28;;;304.30;;
77968;SDS011;67161;0.000;0.000;2023-04-03T03:46:46;936.72;;;305.13;;
77968;SDS011;67161;0.000;0.000;2023-04-03T03:49:12;935.75;;;307.05;;
77968;SDS011;67161;0.000;0.000;2023-04-03T03:51:38;949.17;;;308.33;;
77968;SDS011;67161;0.000;0.000;2023-04-03T03:54:04;948.75;;;310.48;;
77968;SDS011;67161;0.000;0.000;2023-04-03T03:56:30;957.53;;;312.08;;
77968;SDS011;67161;0.000;0.000;2023-04-03T03:58:56;959.67;;;313.80;;
77968;SDS011;67161;0.000;0.000;2023-04-03T04:01:22;955.75;;;312.67;;
77968;SDS011;67161;0.000;0.000;2023-04-03T04:03:48;970.00;;;317.50;;
77968;SDS011;67161;0.000;0.000;2023-04-03T04:06:14;974.80;;;318.95;;
77968;SDS011;67161;0.000;0.000;2023-04-03T04:08:40;972.45;;;317.65;;
77968;SDS011;67161;0.000;0.000;2023-04-03T04:11:05;948.47;;;308.77;;
77968;SDS011;67161;0.000;0.000;2023-04-03T04:13:31;976.40;;;317.08;;
77968;SDS011;67161;0.000;0.000;2023-04-03T04:15:57;984.25;;;320.95;;
77968;SDS011;67161;0.000;0.000;2023-04-03T04:18:22;1007.97;;;326.42;;
77968;SDS011;67161;0.000;0.000;2023-04-03T04:20:48;960.72;;;313.58;;
77968;SDS011;67161;0.000;0.000;2023-04-03T04:23:14;971.17;;;314.67;;
77968;SDS011;67161;0.000;0.000;2023-04-03T04:25:41;981.40;;;317.85;;
77968;SDS011;67161;0.000;0.000;2023-04-03T04:28:08;976.80;;;317.20;;
77968;SDS011;67161;0.000;0.000;2023-04-03T04:30:34;971.78;;;317.85;;
77968;SDS011;67161;0.000;0.000;2023-04-03T04:33:00;978.40;;;318.70;;
77968;SDS011;67161;0.000;0.000;2023-04-03T04:35:25;964.95;;;312.23;;
77968;SDS011;67161;0.000;0.000;2023-04-03T04:37:51;981.30;;;318.67;;
77968;SDS011;67161;0.000;0.000;2023-04-03T04:40:17;977.67;;;317.42;;
77968;SDS011;67161;0.000;0.000;2023-04-03T04:42:42;982.25;;;319.02;;
77968;SDS011;67161;0.000;0.000;2023-04-03T04:45:08;986.25;;;320.45;;
77968;SDS011;67161;0.000;0.000;2023-04-03T04:47:34;994.10;;;321.15;;
77968;SDS011;67161;0.000;0.000;2023-04-03T04:49:59;1002.78;;;323.40;;
77968;SDS011;67161;0.000;0.000;2023-04-03T04:52:25;1004.53;;;323.15;;
77968;SDS011;67161;0.000;0.000;2023-04-03T04:54:51;1011.95;;;326.17;;
77968;SDS011;67161;0.000;0.000;2023-04-03T04:57:16;1004.70;;;325.67;;
77968;SDS011;67161;0.000;0.000;2023-04-03T04:59:42;1008.08;;;324.90;;
77968;SDS011;67161;0.000;0.000;2023-04-03T05:02:07;1006.38;;;323.98;;
77968;SDS011;67161;0.000;0.000;2023-04-03T05:04:33;999.47;;;322.20;;
77968;SDS011;67161;0.000;0.000;2023-04-03T05:06:58;997.85;;;322.63;;
77968;SDS011;67161;0.000;0.000;2023-04-03T05:09:24;1001.08;;;323.60;;
77968;SDS011;67161;0.000;0.000;2023-04-03T05:11:50;1011.50;;;326.63;;
77968;SDS011;67161;0.000;0.000;2023-04-03T05:14:16;1011.08;;;324.80;;
77968;SDS011;67161;0.000;0.000;2023-04-03T05:16:41;1008.85;;;324.83;;
77968;SDS011;67161;0.000;0.000;2023-04-03T05:19:07;1003.72;;;322.58;;
77968;SDS011;67161;0.000;0.000;2023-04-03T05:21:33;1005.33;;;322.55;;
77968;SDS011;67161;0.000;0.000;2023-04-03T05:23:59;1001.90;;;321.98;;
77968;SDS011;67161;0.000;0.000;2023-04-03T05:26:27;1004.47;;;323.17;;
77968;SDS011;67161;0.000;0.000;2023-04-03T05:28:54;987.75;;;317.73;;
77968;SDS011;67161;0.000;0.000;2023-04-03T05:31:20;985.42;;;317.65;;
77968;SDS011;67161;0.000;0.000;2023-04-03T05:33:46;996.22;;;319.90;;
77968;SDS011;67161;0.000;0.000;2023-04-03T05:36:12;998.83;;;320.52;;
77968;SDS011;67161;0.000;0.000;2023-04-03T05:38:38;1000.38;;;321.88;;
77968;SDS011;67161;0.000;0.000;2023-04-03T05:41:04;1007.13;;;323.27;;
77968;SDS011;67161;0.000;0.000;2023-04-03T05:43:30;998.75;;;321.33;;
77968;SDS011;67161;0.000;0.000;2023-04-03T05:45:55;987.35;;;318.95;;
77968;SDS011;67161;0.000;0.000;2023-04-03T05:48:21;990.08;;;319.73;;
77968;SDS011;67161;0.000;0.000;2023-04-03T05:50:46;996.88;;;319.85;;
77968;SDS011;67161;0.000;0.000;2023-04-03T05:53:14;975.28;;;313.50;;
77968;SDS011;67161;0.000;0.000;2023-04-03T05:55:44;961.47;;;309.43;;
77968;SDS011;67161;0.000;0.000;2023-04-03T05:58:10;985.25;;;317.17;;
77968;SDS011;67161;0.000;0.000;2023-04-03T06:00:35;986.70;;;317.27;;
77968;SDS011;67161;0.000;0.000;2023-04-03T06:03:01;974.97;;;313.55;;
77968;SDS011;67161;0.000;0.000;2023-04-03T06:05:27;956.83;;;307.52;;
77968;SDS011;67161;0.000;0.000;2023-04-03T06:07:52;972.13;;;312.77;;
77968;SDS011;67161;0.000;0.000;2023-04-03T06:10:18;972.63;;;314.15;;
77968;SDS011;67161;0.000;0.000;2023-04-03T06:12:45;971.47;;;314.73;;
77968;SDS011;67161;0.000;0.000;2023-04-03T06:15:10;982.90;;;315.15;;
77968;SDS011;67161;0.000;0.000;2023-04-03T06:17:37;981.72;;;315.05;;
77968;SDS011;67161;0.000;0.000;2023-04-03T06:20:03;983.97;;;315.67;;
77968;SDS011;67161;0.000;0.000;2023-04-03T06:22:29;983.65;;;315.48;;
77968;SDS011;67161;0.000;0.000;2023-04-03T06:24:55;978.03;;;315.10;;
77968;SDS011;67161;0.000;0.000;2023-04-03T06:27:21;993.70;;;317.65;;
77968;SDS011;67161;0.000;0.000;2023-04-03T06:29:47;990.85;;;318.60;;
77968;SDS011;67161;0.000;0.000;2023-04-03T06:32:13;986.28;;;315.67;;
77968;SDS011;67161;0.000;0.000;2023-04-03T06:34:40;986.97;;;316.02;;
77968;SDS011;67161;0.000;0.000;2023-04-03T06:37:06;991.70;;;317.58;;
77968;SDS011;67161;0.000;0.000;2023-04-03T06:39:35;980.60;;;316.08;;
77968;SDS011;67161;0.000;0.000;2023-04-03T06:42:01;993.90;;;319.30;;
77968;SDS011;67161;0.000;0.000;2023-04-03T06:44:27;999.17;;;321.13;;
77968;SDS011;67161;0.000;0.000;2023-04-03T06:46:52;996.33;;;320.45;;
77968;SDS011;67161;0.000;0.000;2023-04-03T06:49:19;1013.10;;;323.83;;
77968;SDS011;67161;0.000;0.000;2023-04-03T06:51:44;1005.85;;;321.40;;
77968;SDS011;67161;0.000;0.000;2023-04-03T06:54:10;1006.97;;;323.52;;
77968;SDS011;67161;0.000;0.000;2023-04-03T06:56:36;998.58;;;320.70;;
77968;SDS011;67161;0.000;0.000;2023-04-03T06:59:02;1012.92;;;324.02;;
77968;SDS011;67161;0.000;0.000;2023-04-03T07:01:28;1001.97;;;322.10;;
77968;SDS011;67161;0.000;0.000;2023-04-03T07:03:55;1022.55;;;326.50;;
77968;SDS011;67161;0.000;0.000;2023-04-03T07:06:21;1018.85;;;325.77;;
77968;SDS011;67161;0.000;0.000;2023-04-03T07:08:47;1017.70;;;325.35;;
77968;SDS011;67161;0.000;0.000;2023-04-03T07:11:14;1007.42;;;321.63;;
77968;SDS011;67161;0.000;0.000;2023-04-03T07:13:40;1005.60;;;321.23;;
77968;SDS011;67161;0.000;0.000;2023-04-03T07:16:06;1016.90;;;324.42;;
77968;SDS011;67161;0.000;0.000;2023-04-03T07:18:32;1018.80;;;325.50;;
77968;SDS011;67161;0.000;0.000;2023-04-03T07:20:58;1007.08;;;324.20;;
77968;SDS011;67161;0.000;0.000;2023-04-03T07:23:24;1004.08;;;322.73;;
77968;SDS011;67161;0.000;0.000;2023-04-03T07:25:51;1001.17;;;321.50;;
77968;SDS011;67161;0.000;0.000;2023-04-03T07:28:17;1010.33;;;325.00;;
77968;SDS011;67161;0.000;0.000;2023-04-03T07:30:45;1011.40;;;324.73;;
77968;SDS011;67161;0.000;0.000;2023-04-03T07:33:12;1007.83;;;323.70;;
77968;SDS011;67161;0.000;0.000;2023-04-03T07:35:40;1009.25;;;323.90;;
77968;SDS011;67161;0.000;0.000;2023-04-03T07:38:06;1023.10;;;327.25;;
77968;SDS011;67161;0.000;0.000;2023-04-03T07:40:32;1015.15;;;326.30;;
77968;SDS011;67161;0.000;0.000;2023-04-03T07:42:58;1004.28;;;322.60;;
77968;SDS011;67161;0.000;0.000;2023-04-03T07:45:24;1000.83;;;321.48;;
77968;SDS011;67161;0.000;0.000;2023-04-03T07:47:50;1007.00;;;321.63;;
77968;SDS011;67161;0.000;0.000;2023-04-03T07:50:16;1002.95;;;320.00;;
77968;SDS011;67161;0.000;0.000;2023-04-03T07:52:42;1005.33;;;320.42;;
77968;SDS011;67161;0.000;0.000;2023-04-03T07:55:08;987.63;;;316.80;;
77968;SDS011;67161;0.000;0.000;2023-04-03T07:57:34;970.58;;;312.15;;
77968;SDS011;67161;0.000;0.000;2023-04-03T08:00:00;974.10;;;313.38;;
77968;SDS011;67161;0.000;0.000;2023-04-03T08:02:26;988.80;;;315.92;;
77968;SDS011;67161;0.000;0.000;2023-04-03T08:04:51;991.47;;;317.70;;
77968;SDS011;67161;0.000;0.000;2023-04-03T08:07:17;998.78;;;320.83;;
77968;SDS011;67161;0.000;0.000;2023-04-03T08:09:43;1000.45;;;319.27;;
77968;SDS011;67161;0.000;0.000;2023-04-03T08:12:09;998.58;;;320.30;;
77968;SDS011;67161;0.000;0.000;2023-04-03T08:14:36;1004.22;;;319.75;;
77968;SDS011;67161;0.000;0.000;2023-04-03T08:17:02;1008.38;;;321.13;;
77968;SDS011;67161;0.000;0.000;2023-04-03T08:19:30;994.88;;;318.88;;
77968;SDS011;67161;0.000;0.000;2023-04-03T08:21:56;999.15;;;317.98;;
77968;SDS011;67161;0.000;0.000;2023-04-03T08:24:23;1006.70;;;319.98;;
77968;SDS011;67161;0.000;0.000;2023-04-03T08:26:49;1001.40;;;320.27;;
77968;SDS011;67161;0.000;0.000;2023-04-03T08:29:15;1005.55;;;319.40;;
77968;SDS011;67161;0.000;0.000;2023-04-03T08:31:41;996.10;;;316.65;;
77968;SDS011;67161;0.000;0.000;2023-04-03T08:34:06;989.90;;;316.73;;
77968;SDS011;67161;0.000;0.000;2023-04-03T08:36:33;999.05;;;317.08;;
77968;SDS011;67161;0.000;0.000;2023-04-03T08:38:59;995.28;;;318.10;;
77968;SDS011;67161;0.000;0.000;2023-04-03T08:41:32;996.55;;;318.08;;
77968;SDS011;67161;0.000;0.000;2023-04-03T08:44:14;996.20;;;318.25;;
77968;SDS011;67161;0.000;0.000;2023-04-03T08:47:01;1000.55;;;318.77;;
77968;SDS011;67161;0.000;0.000;2023-04-03T08:49:56;1009.53;;;322.02;;
77968;SDS011;67161;0.000;0.000;2023-04-03T08:52:32;1005.17;;;319.30;;
77968;SDS011;67161;0.000;0.000;2023-04-03T08:55:34;999.83;;;319.25;;
77968;SDS011;67161;0.000;0.000;2023-04-03T08:58:05;1002.92;;;317.45;;
77968;SDS011;67161;0.000;0.000;2023-04-03T09:03:22;1007.08;;;318.60;;
77968;SDS011;67161;0.000;0.000;2023-04-03T09:05:52;1004.75;;;317.83;;
77968;SDS011;67161;0.000;0.000;2023-04-03T09:11:15;998.60;;;318.02;;
77968;SDS011;67161;0.000;0.000;2023-04-03T09:14:02;987.35;;;314.13;;
77968;SDS011;67161;0.000;0.000;2023-04-03T09:16:37;996.55;;;317.35;;
77968;SDS011;67161;0.000;0.000;2023-04-03T09:22:02;1006.13;;;318.17;;
77968;SDS011;67161;0.000;0.000;2023-04-03T09:24:40;1002.78;;;316.55;;
77968;SDS011;67161;0.000;0.000;2023-04-03T09:27:08;999.58;;;315.67;;
77968;SDS011;67161;0.000;0.000;2023-04-03T09:29:39;1010.13;;;318.15;;
77968;SDS011;67161;0.000;0.000;2023-04-03T09:34:56;991.00;;;314.92;;
77968;SDS011;67161;0.000;0.000;2023-04-03T09:37:41;992.42;;;313.48;;
77968;SDS011;67161;0.000;0.000;2023-04-03T09:40:42;987.92;;;313.08;;
77968;SDS011;67161;0.000;0.000;2023-04-03T09:45:45;994.88;;;313.58;;
77968;SDS011;67161;0.000;0.000;2023-04-03T09:50:38;995.45;;;313.58;;
77968;SDS011;67161;0.000;0.000;2023-04-03T09:55:54;1004.55;;;317.60;;
77968;SDS011;67161;0.000;0.000;2023-04-03T09:58:27;993.40;;;312.98;;
77968;SDS011;67161;0.000;0.000;2023-04-03T10:00:57;994.15;;;314.25;;
77968;SDS011;67161;0.000;0.000;2023-04-03T10:03:33;1003.17;;;315.92;;
77968;SDS011;67161;0.000;0.000;2023-04-03T10:06:04;989.60;;;311.73;;
77968;SDS011;67161;0.000;0.000;2023-04-03T10:08:59;995.13;;;313.73;;
77968;SDS011;67161;0.000;0.000;2023-04-03T10:11:29;982.47;;;311.02;;
77968;SDS011;67161;0.000;0.000;2023-04-03T10:13:56;994.95;;;313.27;;
77968;SDS011;67161;0.000;0.000;2023-04-03T10:16:28;1004.28;;;315.83;;
77968;SDS011;67161;0.000;0.000;2023-04-03T10:24:36;999.10;;;313.98;;
77968;SDS011;67161;0.000;0.000;2023-04-03T10:27:09;1000.75;;;315.23;;
77968;SDS011;67161;0.000;0.000;2023-04-03T10:30:09;1005.08;;;317.10;;
77968;SDS011;67161;0.000;0.000;2023-04-03T10:32:56;992.90;;;313.65;;
77968;SDS011;67161;0.000;0.000;2023-04-03T10:35:37;998.03;;;313.85;;
77968;SDS011;67161;0.000;0.000;2023-04-03T10:46:11;998.05;;;315.40;;
77968;SDS011;67161;0.000;0.000;2023-04-03T10:51:50;1006.03;;;317.02;;
77968;SDS011;67161;0.000;0.000;2023-04-03T10:54:40;1002.65;;;315.25;;
77968;SDS011;67161;0.000;0.000;2023-04-03T10:57:30;1001.15;;;314.90;;
77968;SDS011;67161;0.000;0.000;2023-04-03T10:59:57;992.28;;;311.73;;
77968;SDS011;67161;0.000;0.000;2023-04-03T11:02:28;987.40;;;309.70;;
77968;SDS011;67161;0.000;0.000;2023-04-03T11:05:04;976.33;;;308.15;;
77968;SDS011;67161;0.000;0.000;2023-04-03T11:07:42;983.72;;;309.33;;
77968;SDS011;67161;0.000;0.000;2023-04-03T11:10:17;930.47;;;295.80;;
77968;SDS011;67161;0.000;0.000;2023-04-03T11:12:54;882.58;;;280.50;;
77968;SDS011;67161;0.000;0.000;2023-04-03T11:15:32;892.42;;;283.83;;
77968;SDS011;67161;0.000;0.000;2023-04-03T11:18:02;915.70;;;291.80;;
77968;SDS011;67161;0.000;0.000;2023-04-03T11:20:32;935.28;;;297.60;;
77968;SDS011;67161;0.000;0.000;2023-04-03T11:25:45;958.65;;;303.30;;
77968;SDS011;67161;0.000;0.000;2023-04-03T11:28:14;997.85;;;314.00;;
77968;SDS011;67161;0.000;0.000;2023-04-03T11:30:52;977.67;;;308.83;;
77968;SDS011;67161;0.000;0.000;2023-04-03T11:36:56;978.35;;;308.77;;
77968;SDS011;67161;0.000;0.000;2023-04-03T11:42:42;994.05;;;313.02;;
77968;SDS011;67161;0.000;0.000;2023-04-03T11:44:51;987.28;;;311.02;;
77968;SDS011;67161;0.000;0.000;2023-04-03T11:47:44;989.53;;;313.27;;
77968;SDS011;67161;0.000;0.000;2023-04-03T11:52:57;995.42;;;314.90;;
77968;SDS011;67161;0.000;0.000;2023-04-03T12:16:25;3.08;;;1.00;;
77968;SDS011;67161;0.000;0.000;2023-04-03T12:26:32;3.40;;;1.08;;
77968;SDS011;67161;0.000;0.000;2023-04-03T12:29:18;2.95;;;1.00;;
77968;SDS011;67161;0.000;0.000;2023-04-03T12:37:21;2.47;;;1.02;;
77968;SDS011;67161;0.000;0.000;2023-04-03T12:40:24;2.08;;;0.93;;
77968;SDS011;67161;0.000;0.000;2023-04-03T12:46:12;3.50;;;1.20;;
77968;SDS011;67161;0.000;0.000;2023-04-03T12:48:51;3.05;;;0.93;;
77968;SDS011;67161;0.000;0.000;2023-04-03T12:51:37;3.17;;;0.93;;
77968;SDS011;67161;0.000;0.000;2023-04-03T12:54:13;4.70;;;1.10;;
77968;SDS011;67161;0.000;0.000;2023-04-03T12:56:43;2.05;;;0.93;;
77968;SDS011;67161;0.000;0.000;2023-04-03T12:59:21;3.25;;;1.17;;
77968;SDS011;67161;0.000;0.000;2023-04-03T13:02:01;4.05;;;1.08;;
77968;SDS011;67161;0.000;0.000;2023-04-03T13:04:27;2.88;;;0.85;;
77968;SDS011;67161;0.000;0.000;2023-04-03T13:06:54;3.75;;;1.00;;
77968;SDS011;67161;0.000;0.000;2023-04-03T13:09:21;2.45;;;1.00;;
77968;SDS011;67161;0.000;0.000;2023-04-03T13:11:47;2.88;;;0.98;;
77968;SDS011;67161;0.000;0.000;2023-04-03T13:14:20;2.50;;;0.90;;
77968;SDS011;67161;0.000;0.000;2023-04-03T13:17:00;4.10;;;0.95;;
77968;SDS011;67161;0.000;0.000;2023-04-03T13:19:38;3.92;;;1.00;;
77968;SDS011;67161;0.000;0.000;2023-04-03T13:22:52;2.78;;;1.13;;
77968;SDS011;67161;0.000;0.000;2023-04-03T13:25:04;2.80;;;1.00;;
77968;SDS011;67161;0.000;0.000;2023-04-03T13:27:32;3.25;;;0.90;;
77968;SDS011;67161;0.000;0.000;2023-04-03T13:29:59;3.30;;;1.20;;
77968;SDS011;67161;0.000;0.000;2023-04-03T13:32:26;1.88;;;1.00;;
77968;SDS011;67161;0.000;0.000;2023-04-03T13:34:54;3.78;;;1.10;;
77968;SDS011;67161;0.000;0.000;2023-04-03T13:39:58;2.40;;;0.90;;
77968;SDS011;67161;0.000;0.000;2023-04-03T13:42:29;4.82;;;1.40;;
77968;SDS011;67161;0.000;0.000;2023-04-03T13:48:06;3.17;;;1.05;;
77968;SDS011;67161;0.000;0.000;2023-04-03T13:50:55;3.67;;;1.30;;
77968;SDS011;67161;0.000;0.000;2023-04-03T13:53:27;4.97;;;1.15;;
77968;SDS011;67161;0.000;0.000;2023-04-03T13:56:05;3.55;;;1.10;;
77968;SDS011;67161;0.000;0.000;2023-04-03T13:58:33;3.28;;;1.33;;
77968;SDS011;67161;0.000;0.000;2023-04-03T14:03:40;3.78;;;1.30;;
77968;SDS011;67161;0.000;0.000;2023-04-03T14:06:13;6.78;;;1.40;;
77968;SDS011;67161;0.000;0.000;2023-04-03T14:08:40;2.45;;;1.10;;
77968;SDS011;67161;0.000;0.000;2023-04-03T14:11:08;3.63;;;1.10;;
77968;SDS011;67161;0.000;0.000;2023-04-03T14:13:39;2.55;;;0.95;;
77968;SDS011;67161;0.000;0.000;2023-04-03T14:16:05;2.28;;;1.00;;
77968;SDS011;67161;0.000;0.000;2023-04-03T14:18:31;2.60;;;1.15;;
77968;SDS011;67161;0.000;0.000;2023-04-03T14:20:56;2.95;;;1.20;;
77968;SDS011;67161;0.000;0.000;2023-04-03T14:23:23;2.70;;;1.27;;
77968;SDS011;67161;0.000;0.000;2023-04-03T14:25:48;4.47;;;1.17;;
77968;SDS011;67161;0.000;0.000;2023-04-03T14:28:18;3.55;;;1.10;;
77968;SDS011;67161;0.000;0.000;2023-04-03T14:30:46;2.77;;;1.30;;
77968;SDS011;67161;0.000;0.000;2023-04-03T14:33:14;2.53;;;1.17;;
77968;SDS011;67161;0.000;0.000;2023-04-03T14:35:41;2.15;;;1.10;;
77968;SDS011;67161;0.000;0.000;2023-04-03T14:38:21;2.30;;;1.05;;
77968;SDS011;67161;0.000;0.000;2023-04-03T14:40:51;1.52;;;0.95;;
77968;SDS011;67161;0.000;0.000;2023-04-03T14:43:17;2.38;;;1.10;;
77968;SDS011;67161;0.000;0.000;2023-04-03T14:45:43;3.13;;;1.20;;
77968;SDS011;67161;0.000;0.000;2023-04-03T14:48:12;2.05;;;1.00;;
77968;SDS011;67161;0.000;0.000;2023-04-03T14:50:46;3.70;;;1.00;;
77968;SDS011;67161;0.000;0.000;2023-04-03T14:53:12;4.55;;;1.15;;
77968;SDS011;67161;0.000;0.000;2023-04-03T14:55:39;1.75;;;0.98;;
77968;SDS011;67161;0.000;0.000;2023-04-03T14:58:09;2.25;;;0.90;;
77968;SDS011;67161;0.000;0.000;2023-04-03T15:00:41;3.05;;;0.90;;
77968;SDS011;67161;0.000;0.000;2023-04-03T15:03:11;2.40;;;1.05;;
77968;SDS011;67161;0.000;0.000;2023-04-03T15:05:45;2.42;;;1.10;;
77968;SDS011;67161;0.000;0.000;2023-04-03T15:08:22;3.42;;;1.00;;
77968;SDS011;67161;0.000;0.000;2023-04-03T15:10:49;4.45;;;1.13;;
77968;SDS011;67161;0.000;0.000;2023-04-03T15:13:17;3.38;;;1.17;;
77968;SDS011;67161;0.000;0.000;2023-04-03T15:15:44;3.10;;;0.95;;
77968;SDS011;67161;0.000;0.000;2023-04-03T15:18:14;3.08;;;0.95;;
77968;SDS011;67161;0.000;0.000;2023-04-03T15:20:42;3.42;;;0.90;;
77968;SDS011;67161;0.000;0.000;2023-04-03T15:23:09;3.17;;;1.15;;
77968;SDS011;67161;0.000;0.000;2023-04-03T15:25:37;7.38;;;1.17;;
77968;SDS011;67161;0.000;0.000;2023-04-03T15:28:03;2.78;;;1.00;;
77968;SDS011;67161;0.000;0.000;2023-04-03T15:30:28;2.15;;;0.95;;
77968;SDS011;67161;0.000;0.000;2023-04-03T15:32:54;2.67;;;1.10;;
77968;SDS011;67161;0.000;0.000;2023-04-03T15:35:20;3.13;;;1.05;;
77968;SDS011;67161;0.000;0.000;2023-04-03T15:37:46;2.28;;;0.93;;
77968;SDS011;67161;0.000;0.000;2023-04-03T15:40:13;10.10;;;1.05;;
77968;SDS011;67161;0.000;0.000;2023-04-03T15:42:39;3.28;;;1.00;;
77968;SDS011;67161;0.000;0.000;2023-04-03T15:45:05;3.85;;;0.90;;
77968;SDS011;67161;0.000;0.000;2023-04-03T15:47:32;2.38;;;0.90;;
77968;SDS011;67161;0.000;0.000;2023-04-03T15:49:57;2.22;;;0.90;;
77968;SDS011;67161;0.000;0.000;2023-04-03T15:52:23;3.33;;;0.90;;
77968;SDS011;67161;0.000;0.000;2023-04-03T15:54:49;2.38;;;0.98;;
77968;SDS011;67161;0.000;0.000;2023-04-03T15:57:14;3.05;;;1.10;;
77968;SDS011;67161;0.000;0.000;2023-04-03T15:59:40;3.65;;;1.00;;
77968;SDS011;67161;0.000;0.000;2023-04-03T16:02:06;1.63;;;0.88;;
77968;SDS011;67161;0.000;0.000;2023-04-03T16:04:35;2.45;;;1.17;;
77968;SDS011;67161;0.000;0.000;2023-04-03T16:07:01;2.50;;;1.00;;
77968;SDS011;67161;0.000;0.000;2023-04-03T16:09:27;2.45;;;1.08;;